sensor_id;sensor_type;location;lat;lon;timestamp;P1;durP1;ratioP1;P2;durP2;ratioP2
15899;SDS011;8048;50.644;6.184;2023-09-18T00:00:25;10.10;;;5.57;;
15899;SDS011;8048;50.644;6.184;2023-09-18T00:02:50;6.03;;;3.40;;
15899;SDS011;8048;50.644;6.184;2023-09-18T00:05:16;5.47;;;4.13;;
15899;SDS011;8048;50.644;6.184;2023-09-18T00:07:42;5.13;;;4.47;;
15899;SDS011;8048;50.644;6.184;2023-09-18T00:10:09;7.60;;;4.33;;
15899;SDS011;8048;50.644;6.184;2023-09-18T00:12:35;6.80;;;3.73;;
15899;SDS011;8048;50.644;6.184;2023-09-18T00:15:01;4.70;;;4.27;;
15899;SDS011;8048;50.644;6.184;2023-09-18T00:17:26;10.17;;;4.30;;
15899;SDS011;8048;50.644;6.184;2023-09-18T00:19:53;6.63;;;3.67;;
15899;SDS011;8048;50.644;6.184;2023-09-18T00:22:19;7.43;;;4.50;;
15899;SDS011;8048;50.644;6.184;2023-09-18T00:24:45;6.70;;;4.40;;
15899;SDS011;8048;50.644;6.184;2023-09-18T00:27:11;5.57;;;4.00;;
15899;SDS011;8048;50.644;6.184;2023-09-18T00:29:38;8.20;;;4.10;;
15899;SDS011;8048;50.644;6.184;2023-09-18T00:32:04;6.93;;;3.77;;
15899;SDS011;8048;50.644;6.184;2023-09-18T00:34:30;5.03;;;3.83;;
15899;SDS011;8048;50.644;6.184;2023-09-18T00:36:57;4.63;;;3.43;;
15899;SDS011;8048;50.644;6.184;2023-09-18T00:39:24;5.80;;;4.10;;
15899;SDS011;8048;50.644;6.184;2023-09-18T00:41:50;4.80;;;4.30;;
15899;SDS011;8048;50.644;6.184;2023-09-18T00:44:19;7.00;;;3.70;;
15899;SDS011;8048;50.644;6.184;2023-09-18T00:46:45;11.40;;;3.10;;
15899;SDS011;8048;50.644;6.184;2023-09-18T00:49:10;8.20;;;4.60;;
15899;SDS011;8048;50.644;6.184;2023-09-18T00:51:37;3.80;;;3.60;;
15899;SDS011;8048;50.644;6.184;2023-09-18T00:54:03;6.60;;;4.00;;
15899;SDS011;8048;50.644;6.184;2023-09-18T00:56:29;4.47;;;3.70;;
15899;SDS011;8048;50.644;6.184;2023-09-18T00:58:54;5.47;;;3.53;;
15899;SDS011;8048;50.644;6.184;2023-09-18T01:01:20;4.90;;;4.00;;
15899;SDS011;8048;50.644;6.184;2023-09-18T01:03:48;4.87;;;4.20;;
15899;SDS011;8048;50.644;6.184;2023-09-18T01:06:15;4.20;;;3.90;;
15899;SDS011;8048;50.644;6.184;2023-09-18T01:08:41;3.50;;;3.00;;
15899;SDS011;8048;50.644;6.184;2023-09-18T01:11:10;3.23;;;2.90;;
15899;SDS011;8048;50.644;6.184;2023-09-18T01:14:01;3.50;;;3.20;;
15899;SDS011;8048;50.644;6.184;2023-09-18T01:16:39;4.33;;;3.03;;
15899;SDS011;8048;50.644;6.184;2023-09-18T01:19:33;3.30;;;3.00;;
15899;SDS011;8048;50.644;6.184;2023-09-18T01:22:04;3.77;;;3.47;;
15899;SDS011;8048;50.644;6.184;2023-09-18T01:24:31;4.90;;;3.87;;
15899;SDS011;8048;50.644;6.184;2023-09-18T01:27:01;3.27;;;3.07;;
15899;SDS011;8048;50.644;6.184;2023-09-18T01:29:28;4.90;;;3.70;;
15899;SDS011;8048;50.644;6.184;2023-09-18T01:31:53;3.30;;;3.00;;
15899;SDS011;8048;50.644;6.184;2023-09-18T01:34:19;6.07;;;4.10;;
15899;SDS011;8048;50.644;6.184;2023-09-18T01:36:48;8.53;;;3.83;;
15899;SDS011;8048;50.644;6.184;2023-09-18T01:39:15;3.40;;;3.10;;
15899;SDS011;8048;50.644;6.184;2023-09-18T01:41:41;6.60;;;3.10;;
15899;SDS011;8048;50.644;6.184;2023-09-18T01:44:08;3.80;;;3.50;;
15899;SDS011;8048;50.644;6.184;2023-09-18T01:46:33;5.00;;;3.50;;
15899;SDS011;8048;50.644;6.184;2023-09-18T01:49:01;3.80;;;3.20;;
15899;SDS011;8048;50.644;6.184;2023-09-18T01:51:29;5.30;;;3.60;;
15899;SDS011;8048;50.644;6.184;2023-09-18T01:53:55;4.23;;;3.20;;
15899;SDS011;8048;50.644;6.184;2023-09-18T01:56:21;3.60;;;3.30;;
15899;SDS011;8048;50.644;6.184;2023-09-18T01:58:48;4.03;;;3.73;;
15899;SDS011;8048;50.644;6.184;2023-09-18T02:01:14;5.17;;;3.53;;
15899;SDS011;8048;50.644;6.184;2023-09-18T02:03:39;4.80;;;3.53;;
15899;SDS011;8048;50.644;6.184;2023-09-18T02:06:06;5.53;;;4.13;;
15899;SDS011;8048;50.644;6.184;2023-09-18T02:08:31;5.03;;;3.97;;
15899;SDS011;8048;50.644;6.184;2023-09-18T02:10:57;8.03;;;4.90;;
15899;SDS011;8048;50.644;6.184;2023-09-18T02:13:22;6.40;;;3.77;;
15899;SDS011;8048;50.644;6.184;2023-09-18T02:15:48;7.60;;;4.03;;
15899;SDS011;8048;50.644;6.184;2023-09-18T02:18:14;6.63;;;4.93;;
15899;SDS011;8048;50.644;6.184;2023-09-18T02:20:40;7.60;;;4.10;;
15899;SDS011;8048;50.644;6.184;2023-09-18T02:23:07;6.90;;;4.27;;
15899;SDS011;8048;50.644;6.184;2023-09-18T02:25:32;4.67;;;4.23;;
15899;SDS011;8048;50.644;6.184;2023-09-18T02:27:58;6.07;;;5.47;;
15899;SDS011;8048;50.644;6.184;2023-09-18T02:30:23;5.63;;;4.60;;
15899;SDS011;8048;50.644;6.184;2023-09-18T02:32:49;4.80;;;4.30;;
15899;SDS011;8048;50.644;6.184;2023-09-18T02:35:15;8.03;;;5.20;;
15899;SDS011;8048;50.644;6.184;2023-09-18T02:37:40;5.03;;;4.30;;
15899;SDS011;8048;50.644;6.184;2023-09-18T02:40:06;5.10;;;4.67;;
15899;SDS011;8048;50.644;6.184;2023-09-18T02:42:32;8.10;;;4.20;;
15899;SDS011;8048;50.644;6.184;2023-09-18T02:44:58;5.33;;;4.83;;
15899;SDS011;8048;50.644;6.184;2023-09-18T02:47:24;4.93;;;4.43;;
15899;SDS011;8048;50.644;6.184;2023-09-18T02:49:49;8.10;;;3.77;;
15899;SDS011;8048;50.644;6.184;2023-09-18T02:52:15;4.93;;;4.33;;
15899;SDS011;8048;50.644;6.184;2023-09-18T02:54:40;4.50;;;3.20;;
15899;SDS011;8048;50.644;6.184;2023-09-18T02:57:06;5.23;;;3.67;;
15899;SDS011;8048;50.644;6.184;2023-09-18T02:59:31;5.13;;;3.30;;
15899;SDS011;8048;50.644;6.184;2023-09-18T03:01:57;6.10;;;3.23;;
15899;SDS011;8048;50.644;6.184;2023-09-18T03:04:22;4.27;;;3.70;;
15899;SDS011;8048;50.644;6.184;2023-09-18T03:06:48;7.07;;;3.33;;
15899;SDS011;8048;50.644;6.184;2023-09-18T03:09:14;5.13;;;3.50;;
15899;SDS011;8048;50.644;6.184;2023-09-18T03:11:40;4.83;;;3.87;;
15899;SDS011;8048;50.644;6.184;2023-09-18T03:14:06;5.23;;;2.83;;
15899;SDS011;8048;50.644;6.184;2023-09-18T03:16:31;3.57;;;3.03;;
15899;SDS011;8048;50.644;6.184;2023-09-18T03:18:58;2.90;;;2.70;;
15899;SDS011;8048;50.644;6.184;2023-09-18T03:21:23;2.47;;;2.27;;
15899;SDS011;8048;50.644;6.184;2023-09-18T03:23:49;3.37;;;2.07;;
15899;SDS011;8048;50.644;6.184;2023-09-18T03:26:15;3.73;;;2.23;;
15899;SDS011;8048;50.644;6.184;2023-09-18T03:28:40;5.90;;;3.63;;
15899;SDS011;8048;50.644;6.184;2023-09-18T03:31:06;1.97;;;1.87;;
15899;SDS011;8048;50.644;6.184;2023-09-18T03:33:32;1.90;;;1.80;;
15899;SDS011;8048;50.644;6.184;2023-09-18T03:35:57;1.93;;;1.83;;
15899;SDS011;8048;50.644;6.184;2023-09-18T03:38:23;2.27;;;2.07;;
15899;SDS011;8048;50.644;6.184;2023-09-18T03:40:49;3.90;;;2.07;;
15899;SDS011;8048;50.644;6.184;2023-09-18T03:43:15;3.03;;;2.07;;
15899;SDS011;8048;50.644;6.184;2023-09-18T03:45:41;2.10;;;1.90;;
15899;SDS011;8048;50.644;6.184;2023-09-18T03:48:06;2.90;;;1.80;;
15899;SDS011;8048;50.644;6.184;2023-09-18T03:50:32;2.47;;;2.30;;
15899;SDS011;8048;50.644;6.184;2023-09-18T03:52:57;2.03;;;1.93;;
15899;SDS011;8048;50.644;6.184;2023-09-18T03:55:23;3.73;;;2.60;;
15899;SDS011;8048;50.644;6.184;2023-09-18T03:57:49;2.23;;;2.03;;
15899;SDS011;8048;50.644;6.184;2023-09-18T04:00:17;2.40;;;2.20;;
15899;SDS011;8048;50.644;6.184;2023-09-18T04:02:42;2.80;;;1.87;;
15899;SDS011;8048;50.644;6.184;2023-09-18T04:05:08;2.40;;;2.13;;
15899;SDS011;8048;50.644;6.184;2023-09-18T04:07:34;2.50;;;2.30;;
15899;SDS011;8048;50.644;6.184;2023-09-18T04:10:00;4.50;;;2.37;;
15899;SDS011;8048;50.644;6.184;2023-09-18T04:12:25;2.37;;;2.17;;
15899;SDS011;8048;50.644;6.184;2023-09-18T04:14:51;3.00;;;2.70;;
15899;SDS011;8048;50.644;6.184;2023-09-18T04:17:17;2.53;;;2.40;;
15899;SDS011;8048;50.644;6.184;2023-09-18T04:19:43;2.60;;;2.40;;
15899;SDS011;8048;50.644;6.184;2023-09-18T04:22:09;3.03;;;2.77;;
15899;SDS011;8048;50.644;6.184;2023-09-18T04:24:34;4.60;;;2.53;;
15899;SDS011;8048;50.644;6.184;2023-09-18T04:27:00;2.90;;;2.70;;
15899;SDS011;8048;50.644;6.184;2023-09-18T04:29:26;2.47;;;2.23;;
15899;SDS011;8048;50.644;6.184;2023-09-18T04:31:51;2.17;;;2.07;;
15899;SDS011;8048;50.644;6.184;2023-09-18T04:34:18;3.20;;;2.73;;
15899;SDS011;8048;50.644;6.184;2023-09-18T04:36:44;2.90;;;2.70;;
15899;SDS011;8048;50.644;6.184;2023-09-18T04:39:10;2.67;;;2.53;;
15899;SDS011;8048;50.644;6.184;2023-09-18T04:41:35;2.43;;;2.23;;
15899;SDS011;8048;50.644;6.184;2023-09-18T04:44:01;2.70;;;2.50;;
15899;SDS011;8048;50.644;6.184;2023-09-18T04:46:27;2.67;;;2.57;;
15899;SDS011;8048;50.644;6.184;2023-09-18T04:48:54;2.73;;;2.30;;
15899;SDS011;8048;50.644;6.184;2023-09-18T04:51:20;2.77;;;2.17;;
15899;SDS011;8048;50.644;6.184;2023-09-18T04:53:45;2.50;;;2.30;;
15899;SDS011;8048;50.644;6.184;2023-09-18T04:56:11;3.17;;;2.50;;
15899;SDS011;8048;50.644;6.184;2023-09-18T04:58:37;2.97;;;2.77;;
15899;SDS011;8048;50.644;6.184;2023-09-18T05:01:03;2.57;;;2.37;;
15899;SDS011;8048;50.644;6.184;2023-09-18T05:03:35;2.77;;;2.40;;
15899;SDS011;8048;50.644;6.184;2023-09-18T05:06:01;2.53;;;2.40;;
15899;SDS011;8048;50.644;6.184;2023-09-18T05:08:28;3.37;;;2.73;;
15899;SDS011;8048;50.644;6.184;2023-09-18T05:10:53;2.30;;;2.20;;
15899;SDS011;8048;50.644;6.184;2023-09-18T05:13:19;3.00;;;2.70;;
15899;SDS011;8048;50.644;6.184;2023-09-18T05:15:44;5.50;;;2.50;;
15899;SDS011;8048;50.644;6.184;2023-09-18T05:18:10;3.00;;;2.77;;
15899;SDS011;8048;50.644;6.184;2023-09-18T05:20:35;7.43;;;2.80;;
15899;SDS011;8048;50.644;6.184;2023-09-18T05:23:01;2.70;;;2.50;;
15899;SDS011;8048;50.644;6.184;2023-09-18T05:25:27;3.30;;;2.70;;
15899;SDS011;8048;50.644;6.184;2023-09-18T05:27:57;3.00;;;2.80;;
15899;SDS011;8048;50.644;6.184;2023-09-18T05:30:28;3.93;;;2.80;;
15899;SDS011;8048;50.644;6.184;2023-09-18T05:32:59;6.10;;;3.43;;
15899;SDS011;8048;50.644;6.184;2023-09-18T05:35:30;4.13;;;2.70;;
15899;SDS011;8048;50.644;6.184;2023-09-18T05:37:56;2.83;;;2.20;;
15899;SDS011;8048;50.644;6.184;2023-09-18T05:40:23;2.67;;;2.47;;
15899;SDS011;8048;50.644;6.184;2023-09-18T05:42:51;3.63;;;2.50;;
15899;SDS011;8048;50.644;6.184;2023-09-18T05:45:18;2.73;;;2.53;;
15899;SDS011;8048;50.644;6.184;2023-09-18T05:47:44;2.70;;;2.50;;
15899;SDS011;8048;50.644;6.184;2023-09-18T05:50:09;3.43;;;2.47;;
15899;SDS011;8048;50.644;6.184;2023-09-18T05:52:41;2.53;;;2.33;;
15899;SDS011;8048;50.644;6.184;2023-09-18T05:55:07;3.87;;;2.77;;
15899;SDS011;8048;50.644;6.184;2023-09-18T05:57:34;4.30;;;2.57;;
15899;SDS011;8048;50.644;6.184;2023-09-18T05:59:59;2.10;;;2.00;;
15899;SDS011;8048;50.644;6.184;2023-09-18T06:02:25;2.23;;;2.00;;
15899;SDS011;8048;50.644;6.184;2023-09-18T06:04:57;2.23;;;2.13;;
15899;SDS011;8048;50.644;6.184;2023-09-18T06:07:25;2.33;;;2.20;;
15899;SDS011;8048;50.644;6.184;2023-09-18T06:09:55;2.00;;;1.90;;
15899;SDS011;8048;50.644;6.184;2023-09-18T06:12:21;2.10;;;2.00;;
15899;SDS011;8048;50.644;6.184;2023-09-18T06:14:47;2.10;;;2.00;;
15899;SDS011;8048;50.644;6.184;2023-09-18T06:17:13;3.03;;;1.90;;
15899;SDS011;8048;50.644;6.184;2023-09-18T06:19:39;2.27;;;2.17;;
15899;SDS011;8048;50.644;6.184;2023-09-18T06:22:05;3.30;;;2.60;;
15899;SDS011;8048;50.644;6.184;2023-09-18T06:24:32;1.70;;;1.60;;
15899;SDS011;8048;50.644;6.184;2023-09-18T06:26:58;2.40;;;2.30;;
15899;SDS011;8048;50.644;6.184;2023-09-18T06:29:24;3.17;;;2.20;;
15899;SDS011;8048;50.644;6.184;2023-09-18T06:31:50;2.00;;;1.90;;
15899;SDS011;8048;50.644;6.184;2023-09-18T06:34:16;2.00;;;1.90;;
15899;SDS011;8048;50.644;6.184;2023-09-18T06:36:41;2.57;;;2.37;;
15899;SDS011;8048;50.644;6.184;2023-09-18T06:39:07;2.33;;;2.13;;
15899;SDS011;8048;50.644;6.184;2023-09-18T06:41:32;2.20;;;2.10;;
15899;SDS011;8048;50.644;6.184;2023-09-18T06:43:58;2.60;;;1.80;;
15899;SDS011;8048;50.644;6.184;2023-09-18T06:46:27;2.40;;;2.20;;
15899;SDS011;8048;50.644;6.184;2023-09-18T06:48:53;2.90;;;2.60;;
15899;SDS011;8048;50.644;6.184;2023-09-18T06:51:19;2.40;;;2.20;;
15899;SDS011;8048;50.644;6.184;2023-09-18T06:53:44;3.40;;;2.37;;
15899;SDS011;8048;50.644;6.184;2023-09-18T06:56:10;2.40;;;2.30;;
15899;SDS011;8048;50.644;6.184;2023-09-18T06:58:37;2.23;;;2.13;;
15899;SDS011;8048;50.644;6.184;2023-09-18T07:01:03;3.20;;;2.10;;
15899;SDS011;8048;50.644;6.184;2023-09-18T07:03:31;2.53;;;2.33;;
15899;SDS011;8048;50.644;6.184;2023-09-18T07:05:59;2.83;;;2.33;;
15899;SDS011;8048;50.644;6.184;2023-09-18T07:08:25;6.00;;;2.57;;
15899;SDS011;8048;50.644;6.184;2023-09-18T07:10:50;2.90;;;2.23;;
15899;SDS011;8048;50.644;6.184;2023-09-18T07:13:16;2.47;;;2.27;;
15899;SDS011;8048;50.644;6.184;2023-09-18T07:15:42;2.30;;;2.10;;
15899;SDS011;8048;50.644;6.184;2023-09-18T07:18:09;2.43;;;2.23;;
15899;SDS011;8048;50.644;6.184;2023-09-18T07:20:38;2.03;;;1.93;;
15899;SDS011;8048;50.644;6.184;2023-09-18T07:23:08;1.90;;;1.87;;
15899;SDS011;8048;50.644;6.184;2023-09-18T07:25:34;3.93;;;2.17;;
15899;SDS011;8048;50.644;6.184;2023-09-18T07:27:59;2.20;;;2.10;;
15899;SDS011;8048;50.644;6.184;2023-09-18T07:30:25;3.37;;;2.23;;
15899;SDS011;8048;50.644;6.184;2023-09-18T07:32:52;1.70;;;1.60;;
15899;SDS011;8048;50.644;6.184;2023-09-18T07:35:22;2.63;;;2.43;;
15899;SDS011;8048;50.644;6.184;2023-09-18T07:37:48;2.60;;;2.30;;
15899;SDS011;8048;50.644;6.184;2023-09-18T07:40:13;3.63;;;2.20;;
15899;SDS011;8048;50.644;6.184;2023-09-18T07:42:40;1.90;;;1.80;;
15899;SDS011;8048;50.644;6.184;2023-09-18T07:45:06;2.70;;;2.10;;
15899;SDS011;8048;50.644;6.184;2023-09-18T07:47:32;2.20;;;2.10;;
15899;SDS011;8048;50.644;6.184;2023-09-18T07:49:57;3.03;;;2.30;;
15899;SDS011;8048;50.644;6.184;2023-09-18T07:52:23;3.80;;;2.60;;
15899;SDS011;8048;50.644;6.184;2023-09-18T07:54:48;2.20;;;2.10;;
15899;SDS011;8048;50.644;6.184;2023-09-18T07:57:15;1.73;;;1.63;;
15899;SDS011;8048;50.644;6.184;2023-09-18T07:59:41;2.20;;;2.03;;
15899;SDS011;8048;50.644;6.184;2023-09-18T08:02:07;2.33;;;2.23;;
15899;SDS011;8048;50.644;6.184;2023-09-18T08:04:34;4.13;;;2.10;;
15899;SDS011;8048;50.644;6.184;2023-09-18T08:07:00;2.13;;;2.03;;
15899;SDS011;8048;50.644;6.184;2023-09-18T08:09:25;3.33;;;2.70;;
15899;SDS011;8048;50.644;6.184;2023-09-18T08:11:54;2.27;;;2.17;;
15899;SDS011;8048;50.644;6.184;2023-09-18T08:14:20;4.13;;;3.10;;
15899;SDS011;8048;50.644;6.184;2023-09-18T08:16:46;1.93;;;1.83;;
15899;SDS011;8048;50.644;6.184;2023-09-18T08:19:15;2.20;;;2.10;;
15899;SDS011;8048;50.644;6.184;2023-09-18T08:21:41;2.53;;;2.37;;
15899;SDS011;8048;50.644;6.184;2023-09-18T08:24:07;3.30;;;2.10;;
15899;SDS011;8048;50.644;6.184;2023-09-18T08:26:33;2.27;;;2.07;;
15899;SDS011;8048;50.644;6.184;2023-09-18T08:28:58;2.77;;;2.57;;
15899;SDS011;8048;50.644;6.184;2023-09-18T08:31:24;2.40;;;1.97;;
15899;SDS011;8048;50.644;6.184;2023-09-18T08:33:49;3.33;;;2.10;;
15899;SDS011;8048;50.644;6.184;2023-09-18T08:36:15;2.27;;;2.17;;
15899;SDS011;8048;50.644;6.184;2023-09-18T08:38:41;3.00;;;2.00;;
15899;SDS011;8048;50.644;6.184;2023-09-18T08:41:09;2.73;;;2.53;;
15899;SDS011;8048;50.644;6.184;2023-09-18T08:43:36;2.10;;;1.90;;
15899;SDS011;8048;50.644;6.184;2023-09-18T08:46:04;1.90;;;1.80;;
15899;SDS011;8048;50.644;6.184;2023-09-18T08:48:29;3.10;;;2.40;;
15899;SDS011;8048;50.644;6.184;2023-09-18T08:51:01;2.27;;;2.17;;
15899;SDS011;8048;50.644;6.184;2023-09-18T08:53:30;3.93;;;2.00;;
15899;SDS011;8048;50.644;6.184;2023-09-18T08:55:57;2.60;;;2.40;;
15899;SDS011;8048;50.644;6.184;2023-09-18T08:58:26;2.20;;;2.00;;
15899;SDS011;8048;50.644;6.184;2023-09-18T09:00:56;2.67;;;2.47;;
15899;SDS011;8048;50.644;6.184;2023-09-18T09:03:22;2.70;;;2.60;;
15899;SDS011;8048;50.644;6.184;2023-09-18T09:05:48;2.43;;;2.20;;
15899;SDS011;8048;50.644;6.184;2023-09-18T09:08:14;1.90;;;1.80;;
15899;SDS011;8048;50.644;6.184;2023-09-18T09:10:40;6.80;;;2.13;;
15899;SDS011;8048;50.644;6.184;2023-09-18T09:13:06;2.13;;;2.00;;
15899;SDS011;8048;50.644;6.184;2023-09-18T09:15:32;2.63;;;2.43;;
15899;SDS011;8048;50.644;6.184;2023-09-18T09:18:09;4.70;;;2.30;;
15899;SDS011;8048;50.644;6.184;2023-09-18T09:20:36;3.00;;;2.73;;
15899;SDS011;8048;50.644;6.184;2023-09-18T09:23:03;2.43;;;2.33;;
15899;SDS011;8048;50.644;6.184;2023-09-18T09:25:30;1.97;;;1.90;;
15899;SDS011;8048;50.644;6.184;2023-09-18T09:28:00;1.90;;;1.80;;
15899;SDS011;8048;50.644;6.184;2023-09-18T09:30:31;2.40;;;2.30;;
15899;SDS011;8048;50.644;6.184;2023-09-18T09:33:02;2.37;;;2.20;;
15899;SDS011;8048;50.644;6.184;2023-09-18T09:35:30;2.17;;;2.07;;
15899;SDS011;8048;50.644;6.184;2023-09-18T09:37:59;4.10;;;3.80;;
15899;SDS011;8048;50.644;6.184;2023-09-18T09:40:27;2.30;;;2.20;;
15899;SDS011;8048;50.644;6.184;2023-09-18T09:42:55;2.40;;;2.30;;
15899;SDS011;8048;50.644;6.184;2023-09-18T09:45:29;2.37;;;2.20;;
15899;SDS011;8048;50.644;6.184;2023-09-18T09:48:00;2.30;;;2.20;;
15899;SDS011;8048;50.644;6.184;2023-09-18T09:50:26;2.67;;;2.57;;
15899;SDS011;8048;50.644;6.184;2023-09-18T09:52:52;2.10;;;2.00;;
15899;SDS011;8048;50.644;6.184;2023-09-18T09:57:48;4.97;;;2.83;;
15899;SDS011;8048;50.644;6.184;2023-09-18T10:00:15;3.73;;;2.40;;
15899;SDS011;8048;50.644;6.184;2023-09-18T10:03:01;2.47;;;2.27;;
15899;SDS011;8048;50.644;6.184;2023-09-18T10:05:30;2.70;;;2.60;;
15899;SDS011;8048;50.644;6.184;2023-09-18T10:07:58;3.90;;;2.60;;
15899;SDS011;8048;50.644;6.184;2023-09-18T10:10:29;2.20;;;2.10;;
15899;SDS011;8048;50.644;6.184;2023-09-18T10:13:07;2.53;;;2.40;;
15899;SDS011;8048;50.644;6.184;2023-09-18T10:15:36;2.20;;;2.10;;
15899;SDS011;8048;50.644;6.184;2023-09-18T10:18:05;2.90;;;2.70;;
15899;SDS011;8048;50.644;6.184;2023-09-18T10:20:33;2.87;;;2.67;;
15899;SDS011;8048;50.644;6.184;2023-09-18T10:23:06;2.20;;;2.10;;
15899;SDS011;8048;50.644;6.184;2023-09-18T10:25:36;2.50;;;2.40;;
15899;SDS011;8048;50.644;6.184;2023-09-18T10:28:03;2.47;;;2.27;;
15899;SDS011;8048;50.644;6.184;2023-09-18T10:30:32;2.23;;;1.97;;
15899;SDS011;8048;50.644;6.184;2023-09-18T10:32:59;2.60;;;2.40;;
15899;SDS011;8048;50.644;6.184;2023-09-18T10:35:26;2.63;;;2.43;;
15899;SDS011;8048;50.644;6.184;2023-09-18T10:37:53;2.60;;;2.50;;
15899;SDS011;8048;50.644;6.184;2023-09-18T10:40:20;3.70;;;2.00;;
15899;SDS011;8048;50.644;6.184;2023-09-18T10:42:46;2.63;;;2.43;;
15899;SDS011;8048;50.644;6.184;2023-09-18T10:45:15;2.70;;;2.50;;
15899;SDS011;8048;50.644;6.184;2023-09-18T10:47:44;2.30;;;2.20;;
15899;SDS011;8048;50.644;6.184;2023-09-18T10:50:15;4.30;;;2.47;;
15899;SDS011;8048;50.644;6.184;2023-09-18T10:52:50;3.00;;;2.60;;
15899;SDS011;8048;50.644;6.184;2023-09-18T10:55:16;5.33;;;2.97;;
15899;SDS011;8048;50.644;6.184;2023-09-18T10:57:52;2.70;;;2.60;;
15899;SDS011;8048;50.644;6.184;2023-09-18T11:00:20;2.67;;;2.43;;
15899;SDS011;8048;50.644;6.184;2023-09-18T11:02:54;2.40;;;2.30;;
15899;SDS011;8048;50.644;6.184;2023-09-18T11:06:02;2.70;;;2.50;;
15899;SDS011;8048;50.644;6.184;2023-09-18T11:08:30;2.80;;;2.60;;
15899;SDS011;8048;50.644;6.184;2023-09-18T11:11:05;2.77;;;2.50;;
15899;SDS011;8048;50.644;6.184;2023-09-18T11:13:40;2.67;;;2.47;;
15899;SDS011;8048;50.644;6.184;2023-09-18T11:18:51;3.10;;;2.90;;
15899;SDS011;8048;50.644;6.184;2023-09-18T11:21:17;2.60;;;2.50;;
15899;SDS011;8048;50.644;6.184;2023-09-18T11:23:48;2.60;;;2.50;;
15899;SDS011;8048;50.644;6.184;2023-09-18T11:26:28;2.80;;;2.60;;
15899;SDS011;8048;50.644;6.184;2023-09-18T11:28:56;2.67;;;2.57;;
15899;SDS011;8048;50.644;6.184;2023-09-18T11:31:41;9.60;;;2.70;;
15899;SDS011;8048;50.644;6.184;2023-09-18T11:34:28;2.43;;;2.33;;
15899;SDS011;8048;50.644;6.184;2023-09-18T11:37:01;2.57;;;2.47;;
15899;SDS011;8048;50.644;6.184;2023-09-18T11:39:43;3.10;;;2.90;;
15899;SDS011;8048;50.644;6.184;2023-09-18T11:42:28;2.43;;;2.33;;
15899;SDS011;8048;50.644;6.184;2023-09-18T11:44:54;4.00;;;2.73;;
15899;SDS011;8048;50.644;6.184;2023-09-18T11:47:23;2.97;;;2.57;;
15899;SDS011;8048;50.644;6.184;2023-09-18T11:49:51;2.40;;;2.07;;
15899;SDS011;8048;50.644;6.184;2023-09-18T11:52:25;2.70;;;2.60;;
15899;SDS011;8048;50.644;6.184;2023-09-18T11:54:52;2.97;;;2.77;;
15899;SDS011;8048;50.644;6.184;2023-09-18T11:57:19;2.73;;;2.60;;
15899;SDS011;8048;50.644;6.184;2023-09-18T11:59:45;2.10;;;1.90;;
15899;SDS011;8048;50.644;6.184;2023-09-18T12:02:12;2.50;;;1.97;;
15899;SDS011;8048;50.644;6.184;2023-09-18T12:04:45;2.97;;;2.43;;
15899;SDS011;8048;50.644;6.184;2023-09-18T12:07:12;2.80;;;2.60;;
15899;SDS011;8048;50.644;6.184;2023-09-18T12:09:38;3.00;;;2.63;;
15899;SDS011;8048;50.644;6.184;2023-09-18T12:12:07;2.30;;;2.20;;
15899;SDS011;8048;50.644;6.184;2023-09-18T12:14:34;2.20;;;2.10;;
15899;SDS011;8048;50.644;6.184;2023-09-18T12:17:00;2.93;;;2.60;;
15899;SDS011;8048;50.644;6.184;2023-09-18T12:19:28;2.40;;;2.30;;
15899;SDS011;8048;50.644;6.184;2023-09-18T12:21:53;2.70;;;2.60;;
15899;SDS011;8048;50.644;6.184;2023-09-18T12:24:22;3.07;;;2.80;;
15899;SDS011;8048;50.644;6.184;2023-09-18T12:26:49;2.27;;;2.17;;
15899;SDS011;8048;50.644;6.184;2023-09-18T12:29:16;2.70;;;2.60;;
15899;SDS011;8048;50.644;6.184;2023-09-18T12:31:41;2.63;;;2.43;;
15899;SDS011;8048;50.644;6.184;2023-09-18T12:34:14;5.40;;;2.93;;
15899;SDS011;8048;50.644;6.184;2023-09-18T12:36:41;2.80;;;2.70;;
15899;SDS011;8048;50.644;6.184;2023-09-18T12:39:13;3.00;;;2.80;;
15899;SDS011;8048;50.644;6.184;2023-09-18T12:41:45;2.43;;;2.23;;
15899;SDS011;8048;50.644;6.184;2023-09-18T12:44:11;3.03;;;2.83;;
15899;SDS011;8048;50.644;6.184;2023-09-18T12:46:39;2.50;;;2.40;;
15899;SDS011;8048;50.644;6.184;2023-09-18T12:49:14;2.50;;;2.40;;
15899;SDS011;8048;50.644;6.184;2023-09-18T12:52:00;2.30;;;2.20;;
15899;SDS011;8048;50.644;6.184;2023-09-18T12:54:42;2.30;;;2.20;;
15899;SDS011;8048;50.644;6.184;2023-09-18T12:57:19;2.50;;;2.40;;
15899;SDS011;8048;50.644;6.184;2023-09-18T12:59:45;2.50;;;2.40;;
15899;SDS011;8048;50.644;6.184;2023-09-18T13:02:15;2.67;;;2.57;;
15899;SDS011;8048;50.644;6.184;2023-09-18T13:04:50;3.40;;;3.13;;
15899;SDS011;8048;50.644;6.184;2023-09-18T13:07:17;2.80;;;2.70;;
15899;SDS011;8048;50.644;6.184;2023-09-18T13:09:43;2.10;;;2.00;;
15899;SDS011;8048;50.644;6.184;2023-09-18T13:15:12;2.90;;;2.70;;
15899;SDS011;8048;50.644;6.184;2023-09-18T13:17:42;2.77;;;2.57;;
15899;SDS011;8048;50.644;6.184;2023-09-18T13:20:16;2.80;;;2.60;;
15899;SDS011;8048;50.644;6.184;2023-09-18T13:22:47;2.50;;;2.30;;
15899;SDS011;8048;50.644;6.184;2023-09-18T13:25:18;3.47;;;2.70;;
15899;SDS011;8048;50.644;6.184;2023-09-18T13:27:46;2.90;;;2.70;;
15899;SDS011;8048;50.644;6.184;2023-09-18T13:30:11;2.53;;;2.30;;
15899;SDS011;8048;50.644;6.184;2023-09-18T13:32:41;2.67;;;2.57;;
15899;SDS011;8048;50.644;6.184;2023-09-18T13:35:08;2.67;;;2.50;;
15899;SDS011;8048;50.644;6.184;2023-09-18T13:37:34;3.53;;;2.70;;
15899;SDS011;8048;50.644;6.184;2023-09-18T13:40:00;3.67;;;2.47;;
15899;SDS011;8048;50.644;6.184;2023-09-18T13:42:31;3.60;;;2.00;;
15899;SDS011;8048;50.644;6.184;2023-09-18T13:44:59;2.60;;;2.50;;
15899;SDS011;8048;50.644;6.184;2023-09-18T13:47:26;2.60;;;2.50;;
15899;SDS011;8048;50.644;6.184;2023-09-18T13:49:52;4.63;;;2.60;;
15899;SDS011;8048;50.644;6.184;2023-09-18T13:52:21;5.60;;;3.27;;
15899;SDS011;8048;50.644;6.184;2023-09-18T13:54:48;2.90;;;2.67;;
15899;SDS011;8048;50.644;6.184;2023-09-18T13:57:16;2.37;;;2.23;;
15899;SDS011;8048;50.644;6.184;2023-09-18T13:59:43;2.53;;;2.33;;
15899;SDS011;8048;50.644;6.184;2023-09-18T14:02:13;3.20;;;3.00;;
15899;SDS011;8048;50.644;6.184;2023-09-18T14:04:39;2.70;;;2.50;;
15899;SDS011;8048;50.644;6.184;2023-09-18T14:07:08;3.83;;;3.60;;
15899;SDS011;8048;50.644;6.184;2023-09-18T14:09:35;6.00;;;2.63;;
15899;SDS011;8048;50.644;6.184;2023-09-18T14:12:01;2.37;;;2.27;;
15899;SDS011;8048;50.644;6.184;2023-09-18T14:14:27;2.70;;;2.20;;
15899;SDS011;8048;50.644;6.184;2023-09-18T14:16:53;2.07;;;1.97;;
15899;SDS011;8048;50.644;6.184;2023-09-18T14:19:19;2.10;;;2.00;;
15899;SDS011;8048;50.644;6.184;2023-09-18T14:21:45;3.80;;;2.87;;
15899;SDS011;8048;50.644;6.184;2023-09-18T14:24:10;2.80;;;2.70;;
15899;SDS011;8048;50.644;6.184;2023-09-18T14:26:36;2.30;;;2.17;;
15899;SDS011;8048;50.644;6.184;2023-09-18T14:29:08;3.33;;;3.03;;
15899;SDS011;8048;50.644;6.184;2023-09-18T14:31:35;2.60;;;2.40;;
15899;SDS011;8048;50.644;6.184;2023-09-18T14:34:02;1.80;;;1.70;;
15899;SDS011;8048;50.644;6.184;2023-09-18T14:36:29;3.10;;;2.37;;
15899;SDS011;8048;50.644;6.184;2023-09-18T14:38:55;3.03;;;2.17;;
15899;SDS011;8048;50.644;6.184;2023-09-18T14:41:22;2.87;;;2.67;;
15899;SDS011;8048;50.644;6.184;2023-09-18T14:43:50;2.33;;;2.23;;
15899;SDS011;8048;50.644;6.184;2023-09-18T14:46:15;2.70;;;2.60;;
15899;SDS011;8048;50.644;6.184;2023-09-18T14:48:41;2.60;;;2.50;;
15899;SDS011;8048;50.644;6.184;2023-09-18T14:51:06;2.30;;;2.20;;
15899;SDS011;8048;50.644;6.184;2023-09-18T14:53:32;1.93;;;1.83;;
15899;SDS011;8048;50.644;6.184;2023-09-18T14:55:58;3.00;;;2.23;;
15899;SDS011;8048;50.644;6.184;2023-09-18T14:58:25;2.70;;;2.30;;
15899;SDS011;8048;50.644;6.184;2023-09-18T15:01:09;2.70;;;2.50;;
15899;SDS011;8048;50.644;6.184;2023-09-18T15:03:36;2.60;;;2.40;;
15899;SDS011;8048;50.644;6.184;2023-09-18T15:06:01;2.23;;;2.13;;
15899;SDS011;8048;50.644;6.184;2023-09-18T15:08:27;2.63;;;2.53;;
15899;SDS011;8048;50.644;6.184;2023-09-18T15:10:52;4.33;;;2.27;;